Latest Weather Observations for Mandora

IDW60801

Issued at 8:13 am WST Tuesday 20 November 2018 (issued every 10 minutes, with the page automatically refreshed every 10 minutes)

About weather observations | Map of weather stations | Latest weather observations for WA | Other Formats
Station Details ID: 004019 Name: MANDORA Lat: -19.74 Lon: 120.84 Height: 7.5 m
Data from the previous 72 hours. | See also: Recent months at Mandora
Date/Time
WST
Temp
°C
App
Temp
°C
Dew
Point
°C
Rel
Hum
%
Delta-T
°C
Wind Press
QNH
hPa
Press
MSL
hPa
Rain since
9am
mm
Dir  Spd
km/h
Gust
km/h
Spd
kts
Gust
kts
20/08:00am 32.3 32.9 19.5 46 8.4 WSW 15 20 8 11 1005.3 1005.2 0.0
20/07:30am 30.6 31.2 21.1 57 6.4 W 19 24 10 13 1005.1 1005.0 0.0
20/07:00am 29.0 31.4 23.0 70 4.1 W 15 22 8 12 1004.9 1004.8 0.0
20/06:30am 27.8 30.7 23.2 76 3.1 WSW 13 22 7 12 1004.7 1004.6 0.0
20/06:00am 27.0 30.8 24.1 84 2.0 WNW 11 19 6 10 1004.5 1004.4 0.0
20/05:30am 25.9 29.4 23.6 87 1.6 WNW 11 15 6 8 1004.3 1004.2 0.0
20/05:00am 24.7 28.2 22.8 89 1.3 NW 9 11 5 6 1004.3 1004.2 0.0
20/04:30am 25.4 29.0 23.1 87 1.6 NW 9 13 5 7 1003.9 1003.8 0.0
20/04:00am 25.3 28.9 23.0 87 1.6 NW 9 11 5 6 1003.8 1003.7 0.0
20/03:30am 25.5 28.6 22.8 85 1.8 NW 11 15 6 8 1003.7 1003.6 0.0
20/03:00am 25.6 28.8 23.1 86 1.7 NW 11 13 6 7 1003.8 1003.7 0.0
20/02:30am 25.5 29.2 23.2 87 1.6 NNW 9 13 5 7 1003.9 1003.8 0.0
20/02:00am 25.5 29.3 23.4 88 1.4 NW 9 11 5 6 1004.0 1003.9 0.0
20/01:30am 25.2 29.0 23.4 90 1.2 NNW 9 13 5 7 1004.1 1004.0 0.0
20/01:00am 25.1 28.8 23.3 90 1.2 NNW 9 11 5 6 1004.5 1004.4 0.0
20/12:30am 25.3 29.3 23.7 91 1.1 NNW 9 9 5 5 1004.9 1004.8 0.0
20/12:00am 26.2 31.0 24.4 90 1.2 N 7 11 4 6 1005.2 1005.1 0.0
 
Date/Time
WST
Temp
°C
App
Temp
°C
Dew
Point
°C
Rel
Hum
%
Delta-T
°C
Wind Press
QNH
hPa
Press
MSL
hPa
Rain since
9am
mm
Dir  Spd
km/h
Gust
km/h
Spd
kts
Gust
kts
19/11:30pm 26.3 30.9 24.7 91 1.1 N 9 11 5 6 1005.7 1005.6 0.0
19/11:00pm 26.2 30.6 24.4 90 1.2 N 9 13 5 7 1006.1 1006.0 0.0
19/10:30pm 26.5 30.6 24.5 89 1.4 N 11 13 6 7 1006.4 1006.3 0.0
19/10:00pm 27.1 31.6 24.6 86 1.7 N 9 13 5 7 1006.5 1006.4 0.0
19/09:30pm 27.5 31.6 24.6 84 2.0 NW 11 17 6 9 1006.7 1006.6 0.0
19/09:00pm 27.9 31.7 24.7 83 2.2 NW 13 17 7 9 1006.7 1006.6 0.0
19/08:30pm 27.8 31.8 24.4 82 2.4 NW 11 19 6 10 1006.6 1006.5 0.0
19/08:00pm 27.9 31.8 24.3 81 2.5 NW 11 17 6 9 1006.2 1006.1 0.0
19/07:30pm 27.9 31.6 23.9 79 2.8 NW 11 15 6 8 1005.8 1005.7 0.0
19/07:00pm 28.2 31.8 23.8 77 3.0 NNW 11 17 6 9 1005.4 1005.3 0.0
19/06:30pm 28.7 32.0 23.8 75 3.4 N 13 24 7 13 1004.8 1004.7 0.0
19/06:00pm 29.3 31.5 24.0 73 3.7 N 19 26 10 14 1004.4 1004.3 0.0
19/05:30pm 30.1 32.6 24.5 72 3.9 N 19 26 10 14 1004.2 1004.1 0.0
19/05:00pm 30.8 33.0 24.2 68 4.6 N 20 28 11 15 1004.0 1003.9 0.0
19/04:30pm 31.3 33.3 23.9 64 5.1 N 20 30 11 16 1003.8 1003.7 0.0
19/04:00pm 31.5 33.2 24.1 65 5.2 N 22 32 12 17 1003.7 1003.6 0.0
19/03:30pm 31.8 33.5 24.1 63 5.4 N 22 32 12 17 1003.9 1003.8 0.0
19/03:00pm 32.4 34.9 24.7 64 5.4 N 20 32 11 17 1004.1 1004.0 0.0
19/02:30pm 32.6 33.8 23.8 59 6.1 N 24 33 13 18 1004.2 1004.1 0.0
19/02:00pm 32.7 33.6 23.9 60 6.1 N 26 35 14 19 1004.5 1004.4 0.0
19/01:30pm 32.5 33.4 24.0 61 5.9 N 26 35 14 19 1004.9 1004.8 0.0
19/01:00pm 33.0 34.0 24.2 60 6.2 N 26 39 14 21 1005.3 1005.2 0.0
19/12:30pm 33.8 35.3 24.4 58 6.6 N 24 35 13 19 1005.7 1005.6 0.0
19/12:00pm 33.7 34.3 23.4 55 7.2 N 26 35 14 19 1006.1 1006.0 0.0
19/11:30am 33.8 35.5 24.1 57 6.8 NNE 22 32 12 17 1006.1 1006.0 0.0
19/11:00am 34.6 37.0 24.2 54 7.3 NNE 19 26 10 14 1006.3 1006.2 0.0
19/10:30am 35.2 37.9 23.5 50 8.2 NNE 15 24 8 13 1006.6 1006.5 0.0
19/10:00am 35.8 38.0 20.5 41 10.3 ENE 9 17 5 9 1006.9 1006.8 0.0
19/09:30am 34.8 37.2 21.5 46 9.0 ENE 11 17 6 9 1007.3 1007.2 0.0
19/09:00am 34.1 37.1 21.9 49 8.3 E 9 15 5 8 1007.3 1007.2 0.0
19/08:30am 31.7 35.1 22.7 59 6.2 NNE 9 19 5 10 1007.3 1007.2 0.0
19/08:00am 31.2 35.7 23.6 64 5.3 NNE 6 7 3 4 1007.2 1007.1 0.0
19/07:30am 29.6 34.4 23.5 69 4.2 NNE 4 7 2 4 1007.1 1007.0 0.0
19/07:00am 28.8 34.9 25.0 80 2.7 ESE 2 6 1 3 1006.8 1006.7 0.0
19/06:30am 25.9 31.5 25.4 97 0.3 ESE 6 7 3 4 1006.6 1006.5 0.0
19/06:00am 24.1 28.8 23.9 99 0.1 SE 6 9 3 5 1006.3 1006.2 0.0
19/05:30am 23.4 27.4 23.1 98 0.2 SSE 7 11 4 6 1006.2 1006.1 0.0
19/05:00am 23.2 27.2 22.7 97 0.3 SSE 6 11 3 6 1006.1 1006.0 0.0
19/04:30am 23.2 26.8 22.4 95 0.5 S 7 13 4 7 1005.5 1005.4 0.0
19/04:00am 24.0 28.1 23.3 96 0.5 N 7 9 4 5 1005.2 1005.1 0.0
19/03:30am 22.8 27.2 21.4 92 0.9 CALM 0 0 0 0 1004.8 1004.7 0.0
19/03:00am 23.4 28.1 22.0 92 0.9 CALM 0 0 0 0 1004.9 1004.8 0.0
19/02:30am 23.5 28.2 21.9 91 1.1 CALM 0 0 0 0 1005.2 1005.1 0.0
19/02:00am 24.3 27.7 22.7 91 1.1 NE 9 9 5 5 1005.0 1004.9 0.0
19/01:30am 24.3 27.7 22.7 91 1.1 NNE 9 11 5 6 1005.1 1005.0 0.0
19/01:00am 24.5 28.3 22.8 90 1.1 NNE 7 11 4 6 1005.3 1005.2 0.0
19/12:30am 24.5 28.3 22.8 90 1.1 NE 7 11 4 6 1005.8 1005.7 0.0
19/12:00am 25.0 29.0 23.1 89 1.3 ENE 7 11 4 6 1006.4 1006.3 0.0
 
Date/Time
WST
Temp
°C
App
Temp
°C
Dew
Point
°C
Rel
Hum
%
Delta-T
°C
Wind Press
QNH
hPa
Press
MSL
hPa
Rain since
9am
mm
Dir  Spd
km/h
Gust
km/h
Spd
kts
Gust
kts
18/11:30pm 25.6 29.7 23.3 87 1.6 E 7 11 4 6 1007.1 1007.0 0.0
18/11:00pm 26.1 30.5 23.8 87 1.6 NE 7 9 4 5 1007.4 1007.3 0.0
18/10:30pm 26.4 30.9 23.9 86 1.7 NW 7 11 4 6 1007.4 1007.3 0.0
18/10:00pm 26.6 30.8 24.1 86 1.7 WNW 9 11 5 6 1007.5 1007.4 0.0
18/09:30pm 27.1 31.5 24.4 85 1.9 WNW 9 11 5 6 1007.5 1007.4 0.0
18/09:00pm 27.3 31.7 24.4 84 2.0 WNW 9 13 5 7 1007.5 1007.4 0.0
18/08:30pm 27.6 31.6 24.4 83 2.2 WNW 11 15 6 8 1007.3 1007.2 0.0
18/08:00pm 27.7 31.6 24.3 82 2.4 NW 11 15 6 8 1007.1 1007.0 0.0
18/07:30pm 27.9 31.5 24.3 81 2.5 WNW 13 19 7 10 1006.7 1006.6 0.0
18/07:00pm 28.2 31.9 24.6 81 2.5 NW 13 20 7 11 1006.5 1006.4 0.0
18/06:30pm 28.6 31.6 24.6 79 2.8 NW 17 20 9 11 1006.1 1006.0 0.0
18/06:00pm 29.3 32.7 24.6 76 3.3 NW 15 24 8 13 1006.0 1005.9 0.0
18/05:30pm 30.2 33.3 24.1 70 4.2 NNW 15 22 8 12 1005.9 1005.8 0.0
18/05:00pm 31.2 34.2 23.3 63 5.5 NW 13 19 7 10 1005.6 1005.5 0.0
18/04:30pm 31.3 33.7 23.7 64 5.3 NNW 17 24 9 13 1005.5 1005.4 0.0
18/04:00pm 32.2 34.3 23.7 61 5.9 NNW 19 24 10 13 1005.3 1005.2 0.0
18/03:30pm 32.6 33.9 22.7 56 6.8 NNW 20 28 11 15 1005.5 1005.4 0.0
18/03:00pm 32.6 33.7 22.4 55 7.0 NNW 20 30 11 16 1005.8 1005.7 0.0
18/02:30pm 32.8 33.1 21.6 51 7.6 NNW 22 30 12 16 1006.2 1006.1 0.0
18/02:00pm 33.5 33.9 21.0 48 8.4 NNW 20 32 11 17 1006.6 1006.5 0.0
18/01:30pm 34.2 34.7 21.9 48 8.4 NNW 22 32 12 17 1007.0 1006.9 0.0
18/01:00pm 33.3 33.4 21.8 51 7.8 NNW 24 33 13 18 1007.3 1007.2 0.0
18/12:30pm 33.4 33.4 20.2 46 8.8 NNW 20 30 11 16 1007.8 1007.7 0.0
18/12:00pm 34.0 34.1 20.4 45 9.1 NNW 20 30 11 16 1008.0 1007.9 0.0
18/11:30am 34.3 34.9 21.0 45 9.0 NNW 19 28 10 15 1008.4 1008.3 0.0
18/11:00am 33.7 34.2 21.2 48 8.5 NNW 20 30 11 16 1008.6 1008.5 0.0
18/10:30am 33.1 33.3 20.6 47 8.4 N 20 30 11 16 1008.7 1008.6 0.0
18/10:00am 33.3 33.9 21.1 48 8.2 N 19 28 10 15 1008.9 1008.8 0.0
18/09:30am 33.3 34.6 22.4 52 7.5 NNE 19 30 10 16 1009.3 1009.2 0.0
18/09:00am 34.0 35.4 19.6 42 9.5 NNW 11 17 6 9 1008.9 1008.8 0.0
18/08:30am 33.1 34.3 19.9 45 8.7 N 13 17 7 9 1008.7 1008.6 0.0
18/08:00am 32.5 35.0 21.7 53 7.3 N 11 19 6 10 1008.5 1008.4 0.0
18/07:30am 31.2 33.7 22.5 60 5.9 N 13 19 7 10 1008.3 1008.2 0.0
18/07:00am 30.3 32.8 22.5 63 5.3 NNE 13 17 7 9 1008.1 1008.0 0.0
18/06:30am 27.3 30.9 22.3 74 3.4 NE 7 9 4 5 1007.9 1007.8 0.0
18/06:00am 24.5 26.6 19.3 73 3.3 E 7 9 4 5 1007.8 1007.7 0.0
18/05:30am 23.1 23.9 16.4 66 4.1 E 7 9 4 5 1007.4 1007.3 0.0
18/05:00am 22.9 23.5 16.7 68 3.8 ENE 9 11 5 6 1007.0 1006.9 0.0
18/04:30am 21.9 22.9 16.4 71 3.3 ENE 6 9 3 5 1006.6 1006.5 0.0
18/04:00am 22.3 22.9 16.8 71 3.4 NE 9 11 5 6 1006.5 1006.4 0.0
18/03:30am 22.5 23.4 16.5 69 3.7 NE 7 9 4 5 1006.4 1006.3 0.0
18/03:00am 23.7 26.0 16.7 65 4.3 CALM 0 2 0 1 1006.1 1006.0 0.0
18/02:30am 25.2 26.1 16.6 59 5.3 WSW 7 9 4 5 1006.1 1006.0 0.0
18/02:00am 24.8 25.6 17.3 63 4.7 W 9 11 5 6 1006.1 1006.0 0.0
18/01:30am 24.2 24.9 17.0 64 4.4 NNW 9 9 5 5 1006.4 1006.3 0.0
18/01:00am 25.4 26.1 17.1 60 5.2 W 9 11 5 6 1006.6 1006.5 0.0
18/12:30am 26.1 27.1 16.9 57 5.7 NNW 7 11 4 6 1007.1 1007.0 0.0
18/12:00am 28.2 27.9 16.5 49 7.3 WSW 13 19 7 10 1007.2 1007.1 0.0
 
Date/Time
WST
Temp
°C
App
Temp
°C
Dew
Point
°C
Rel
Hum
%
Delta-T
°C
Wind Press
QNH
hPa
Press
MSL
hPa
Rain since
9am
mm
Dir  Spd
km/h
Gust
km/h
Spd
kts
Gust
kts
17/11:30pm 28.4 28.2 16.7 49 7.3 WSW 13 19 7 10 1007.3 1007.2 0.0
17/11:00pm 28.6 28.3 16.5 48 7.5 WSW 13 19 7 10 1007.4 1007.3 0.0
17/10:30pm 28.5 28.2 16.4 48 7.5 WSW 13 15 7 8 1007.5 1007.4 0.0
17/10:00pm 28.1 29.2 17.0 51 7.0 WSW 7 11 4 6 1007.7 1007.6 0.0
17/09:30pm 29.5 30.4 16.7 46 8.0 W 7 9 4 5 1007.6 1007.5 0.0
17/09:00pm 30.8 30.8 17.1 43 8.7 W 13 20 7 11 1007.4 1007.3 0.0
17/08:30pm 31.4 31.2 17.7 44 8.8 W 15 19 8 10 1007.2 1007.1 0.0
17/08:00pm 32.2 32.5 18.0 42 9.2 W 13 17 7 9 1007.2 1007.1 0.0
17/07:30pm 32.3 32.5 18.5 44 8.9 WSW 15 19 8 10 1007.2 1007.1 0.0
17/07:00pm 32.9 32.2 18.7 43 9.3 W 20 28 11 15 1006.8 1006.7 0.0
17/06:30pm 35.4 35.4 15.2 30 12.6 NNW 9 15 5 8 1006.3 1006.2 0.0
17/06:00pm 35.1 32.9 14.4 29 12.8 ENE 19 35 10 19 1005.6 1005.5 0.0
17/05:30pm 35.8 35.7 17.9 34 11.6 NW 15 22 8 12 1004.5 1004.4 0.0
17/05:00pm 37.7 36.9 16.1 28 13.8 NNW 15 20 8 11 1004.4 1004.3 0.0
17/04:30pm 38.6 36.8 14.4 24 15.1 NNW 17 24 9 13 1004.2 1004.1 0.0
17/04:00pm 39.3 37.1 14.3 22 15.7 NNW 19 26 10 14 1004.2 1004.1 0.0
17/03:30pm 39.5 36.4 14.5 23 15.7 N 24 30 13 16 1004.2 1004.1 0.0
17/03:00pm 40.3 37.9 14.5 22 16.3 NNW 20 30 11 16 1004.5 1004.4 0.0
17/02:30pm 40.8 38.6 14.9 22 16.4 N 20 30 11 16 1004.9 1004.8 0.0
17/02:00pm 41.4 39.0 13.9 20 17.3 N 19 30 10 16 1005.3 1005.2 0.0
17/01:30pm 41.5 38.5 10.6 16 18.5 NE 17 30 9 16 1005.7 1005.6 0.0
17/01:00pm 42.9 42.0 12.6 17 18.8 ENE 9 20 5 11 1006.1 1006.0 0.0
17/12:30pm 40.3 38.5 12.2 19 17.1 NE 13 26 7 14 1006.8 1006.7 0.0
17/12:00pm 41.9 39.5 9.9 15 19.0 ENE 13 20 7 11 1007.4 1007.3 0.0
17/11:30am 42.7 40.4 10.6 15 19.3 E 13 20 7 11 1007.9 1007.8 0.0
17/11:00am 41.7 39.5 10.8 16 18.6 E 13 30 7 16 1008.2 1008.1 0.0
17/10:30am 41.6 38.7 9.7 15 18.9 ESE 15 28 8 15 1008.7 1008.6 0.0
17/10:00am 41.1 37.2 9.3 15 18.7 ESE 20 35 11 19 1009.1 1009.0 0.0
17/09:30am 39.7 35.2 10.1 17 17.5 SE 24 39 13 21 1009.5 1009.4 0.0
17/09:00am 39.1 35.1 10.4 18 17.0 SE 22 39 12 21 1009.8 1009.7 0.0
17/08:30am 38.2 32.6 8.9 17 16.9 SE 28 50 15 27 1010.2 1010.1 0.0
17/08:25am 37.8 32.2 8.6 17 16.7 SE 28 50 15 27 1010.2 1010.1 0.0

Other Formats:

Comma delimited format used in spreadsheet applications
http://www.bom.gov.au/fwo/IDW60801/IDW60801.94200.axf

JavaScript Object Notation format (JSON) in row-major order
http://www.bom.gov.au/fwo/IDW60801/IDW60801.94200.json